Terminal Aerodrome Forecast
Issued by NWS

Home | Current Version | Previous Version | Text Only | Print | Product List | Glossary On
Versions: 1 2 3 4 5 6 7 8 9 10 11 12
170
FTUS46 KSGX 311136
TAFTRM
TAF
KTRM 311136Z 3112/0112 VRB05KT P6SM SKC
     FM312000 14009KT P6SM SCT100
     FM010300 32008KT P6SM SKC
     FM010900 VRB05KT P6SM SKC=

USA.gov is the U.S. government's official web portal to all federal, state and local government web resources and services.